createdAt,value
2023-03-20T00:02:18.586Z,11.53
2023-03-20T00:05:43.768Z,11.55
2023-03-20T00:09:09.001Z,11.55
2023-03-20T00:12:34.201Z,11.55
2023-03-20T00:15:59.410Z,11.57
2023-03-20T00:19:24.639Z,11.55
2023-03-20T00:22:49.838Z,11.52
2023-03-20T00:26:15.047Z,11.51
2023-03-20T00:29:40.254Z,11.5
2023-03-20T00:33:05.476Z,11.49
2023-03-20T00:36:30.628Z,11.5
2023-03-20T00:39:55.820Z,11.56
2023-03-20T00:43:21.058Z,11.58
2023-03-20T00:46:46.333Z,11.59
2023-03-20T00:50:11.420Z,11.55
2023-03-20T00:53:36.639Z,11.49
2023-03-20T00:57:01.882Z,11.43
2023-03-20T01:00:27.030Z,11.38
2023-03-20T01:03:52.272Z,11.37
2023-03-20T01:07:17.463Z,11.36
2023-03-20T01:10:42.686Z,11.3
2023-03-20T01:14:07.890Z,11.22
2023-03-20T01:17:33.112Z,11.06
2023-03-20T01:20:58.324Z,10.99
2023-03-20T01:24:23.493Z,10.95
2023-03-20T01:27:48.696Z,10.92
2023-03-20T01:31:13.906Z,10.88
2023-03-20T01:34:39.105Z,10.87
2023-03-20T01:38:04.344Z,10.86
2023-03-20T01:41:29.496Z,10.88
2023-03-20T01:44:54.704Z,10.9
2023-03-20T01:48:19.911Z,10.91
2023-03-20T01:51:45.109Z,10.96
2023-03-20T01:55:10.335Z,11.01
2023-03-20T01:58:35.513Z,11.05
2023-03-20T02:02:00.760Z,11.09
2023-03-20T02:05:25.977Z,11.12
2023-03-20T02:08:51.233Z,11.2
2023-03-20T02:12:16.398Z,11.22
2023-03-20T02:15:41.568Z,11.22
2023-03-20T02:19:06.790Z,11.23
2023-03-20T02:22:31.994Z,11.25
2023-03-20T02:25:57.195Z,11.26
2023-03-20T02:29:22.412Z,11.27
2023-03-20T02:32:47.631Z,11.29
2023-03-20T02:36:12.892Z,11.34
2023-03-20T02:39:38.017Z,11.37
2023-03-20T02:43:03.224Z,11.37
2023-03-20T02:46:28.494Z,11.38
2023-03-20T02:49:53.625Z,11.35
2023-03-20T02:53:18.848Z,11.28
2023-03-20T02:56:44.041Z,11.26
2023-03-20T03:00:09.248Z,11.2
2023-03-20T03:03:34.483Z,11.13
2023-03-20T03:06:59.681Z,11.12
2023-03-20T03:10:24.878Z,11.1
2023-03-20T03:13:50.074Z,11.09
2023-03-20T03:17:15.271Z,11.09
2023-03-20T03:20:40.502Z,11.12
2023-03-20T03:24:05.709Z,11.13
2023-03-20T03:27:30.903Z,11.17
2023-03-20T03:30:56.117Z,11.2
2023-03-20T03:34:21.365Z,11.21
2023-03-20T03:37:46.556Z,11.21
2023-03-20T03:41:11.779Z,11.21
2023-03-20T03:44:36.972Z,11.19
2023-03-20T03:48:02.192Z,11.17
2023-03-20T03:51:27.419Z,11.15
2023-03-20T03:54:52.626Z,11.14
2023-03-20T03:58:17.809Z,11.07
2023-03-20T04:01:43.022Z,10.97
2023-03-20T04:05:08.219Z,10.88
2023-03-20T04:08:33.398Z,10.84
2023-03-20T04:11:58.632Z,10.83
2023-03-20T04:15:23.821Z,10.86
2023-03-20T04:18:49.071Z,10.85
2023-03-20T04:22:14.272Z,10.86
2023-03-20T04:25:39.517Z,10.87
2023-03-20T04:29:04.817Z,10.86
2023-03-20T04:32:30.162Z,10.86
2023-03-20T04:35:55.407Z,10.86
2023-03-20T04:39:20.642Z,10.88
2023-03-20T04:42:45.876Z,10.9
2023-03-20T04:46:11.274Z,10.92
2023-03-20T04:49:36.819Z,10.93
2023-03-20T04:53:01.988Z,10.9
2023-03-20T04:56:27.245Z,10.88
2023-03-20T04:59:53.128Z,10.92
2023-03-20T05:03:18.411Z,10.9
2023-03-20T05:06:43.615Z,10.91
2023-03-20T05:10:08.827Z,10.91
2023-03-20T05:13:34.065Z,10.93
2023-03-20T05:16:59.360Z,10.95
2023-03-20T05:20:24.606Z,10.98
2023-03-20T05:23:49.697Z,11
2023-03-20T05:27:14.898Z,11.01
2023-03-20T05:30:40.256Z,11.07
2023-03-20T05:34:05.353Z,11.1
2023-03-20T05:37:30.589Z,11.12
2023-03-20T05:40:55.764Z,11.15
2023-03-20T05:44:20.958Z,11.16
2023-03-20T05:47:46.164Z,11.17
2023-03-20T05:51:11.393Z,11.19
2023-03-20T05:54:36.666Z,11.21
2023-03-20T05:58:01.866Z,11.23
2023-03-20T06:01:27.133Z,11.25
2023-03-20T06:04:52.345Z,11.29
2023-03-20T06:08:17.613Z,11.32
2023-03-20T06:11:42.896Z,11.36
2023-03-20T06:15:08.116Z,11.41
2023-03-20T06:18:33.388Z,11.43
2023-03-20T06:21:58.674Z,11.45
2023-03-20T06:25:23.947Z,11.44
2023-03-20T06:28:49.240Z,11.45
2023-03-20T06:32:14.393Z,11.44
2023-03-20T06:35:39.813Z,11.47
2023-03-20T06:39:04.764Z,11.49
2023-03-20T06:42:30.296Z,11.5
2023-03-20T06:45:55.492Z,11.51
2023-03-20T06:49:20.659Z,11.49
2023-03-20T06:52:45.873Z,11.52
2023-03-20T06:56:11.097Z,11.57
2023-03-20T06:59:36.543Z,11.59
2023-03-20T07:03:02.375Z,11.63
2023-03-20T07:06:26.938Z,11.67
2023-03-20T07:09:52.158Z,11.71
2023-03-20T07:13:17.424Z,11.74
2023-03-20T07:16:42.702Z,11.78
2023-03-20T07:20:07.974Z,11.84
2023-03-20T07:23:33.166Z,11.91
2023-03-20T07:26:58.416Z,11.97
2023-03-20T07:30:23.629Z,12
2023-03-20T07:33:48.825Z,12.03
2023-03-20T07:37:14.071Z,12.07
2023-03-20T07:40:39.275Z,12.07
2023-03-20T07:44:04.488Z,12.08
2023-03-20T07:47:29.735Z,12.1
2023-03-20T07:50:54.941Z,12.11
2023-03-20T07:54:20.152Z,12.11
2023-03-20T07:57:45.335Z,12.12
2023-03-20T08:01:10.532Z,12.03
2023-03-20T08:04:35.754Z,11.98
2023-03-20T08:08:00.961Z,11.95
2023-03-20T08:11:26.235Z,11.98
2023-03-20T08:14:51.370Z,12.02
2023-03-20T08:18:16.647Z,12.03
2023-03-20T08:21:41.836Z,12.05
2023-03-20T08:25:07.030Z,12.09
2023-03-20T08:28:46.441Z,12.12
2023-03-20T08:31:57.462Z,12.17
2023-03-20T08:35:32.797Z,12.27
2023-03-20T08:38:47.915Z,12.3
2023-03-20T08:42:13.098Z,12.34
2023-03-20T08:45:38.544Z,12.38
2023-03-20T08:49:03.647Z,12.43
2023-03-20T08:52:28.799Z,12.53
2023-03-20T08:55:54.000Z,12.58
2023-03-20T08:59:19.254Z,12.55
2023-03-20T09:02:44.518Z,12.62
2023-03-20T09:06:09.686Z,12.63
2023-03-20T09:09:34.913Z,12.59
2023-03-20T09:13:00.120Z,12.59
2023-03-20T09:16:25.418Z,12.56
2023-03-20T09:19:50.626Z,12.53
2023-03-20T09:23:15.795Z,12.58
2023-03-20T09:26:41.027Z,12.63
2023-03-20T09:30:06.229Z,12.7
2023-03-20T09:33:31.483Z,12.69
2023-03-20T09:36:56.765Z,12.61
2023-03-20T09:40:21.973Z,12.53
2023-03-20T09:43:47.203Z,12.51
2023-03-20T09:47:20.130Z,12.48
2023-03-20T09:50:38.144Z,12.43
2023-03-20T09:54:02.955Z,12.43
2023-03-20T09:57:28.137Z,12.46
2023-03-20T10:00:53.376Z,12.45
2023-03-20T10:04:18.686Z,12.43
2023-03-20T10:07:43.902Z,12.43
2023-03-20T10:11:09.131Z,12.46
2023-03-20T10:14:34.395Z,12.5
2023-03-20T10:17:59.623Z,12.5
2023-03-20T10:21:24.855Z,12.43
2023-03-20T10:24:50.082Z,12.4
2023-03-20T10:28:15.495Z,12.32
2023-03-20T10:31:40.638Z,12.22
2023-03-20T10:35:05.782Z,12.13
2023-03-20T10:38:31.046Z,12.07
2023-03-20T10:41:56.276Z,12.02
2023-03-20T10:45:21.503Z,11.99
2023-03-20T10:48:46.683Z,12.07
2023-03-20T10:52:11.879Z,12.15
2023-03-20T10:55:37.262Z,12.23
2023-03-20T10:59:02.592Z,12.2
2023-03-20T11:02:27.893Z,12.13
2023-03-20T11:06:08.437Z,12.13
2023-03-20T11:09:18.273Z,12.13
2023-03-20T11:12:43.485Z,12.14
2023-03-20T11:16:08.692Z,12.11
2023-03-20T11:19:33.914Z,12.12
2023-03-20T11:22:59.172Z,12.13
2023-03-20T11:26:24.400Z,12.12
2023-03-20T11:29:49.619Z,12.12
2023-03-20T11:33:14.878Z,12.09
2023-03-20T11:36:40.078Z,12.05
2023-03-20T11:40:05.273Z,12.06
2023-03-20T11:43:30.473Z,12.06
2023-03-20T11:46:55.752Z,12.04
2023-03-20T11:50:20.963Z,12.04
2023-03-20T11:53:48.023Z,12.03
2023-03-20T11:57:11.366Z,12.03
2023-03-20T12:00:36.898Z,12.05
2023-03-20T12:04:01.890Z,12.12
2023-03-20T12:07:27.009Z,12.17
2023-03-20T12:10:52.244Z,12.24
2023-03-20T12:14:17.405Z,12.29
2023-03-20T12:17:42.620Z,12.34
2023-03-20T12:21:07.823Z,12.41
2023-03-20T12:24:33.045Z,12.55
2023-03-20T12:27:58.318Z,12.66
2023-03-20T12:31:23.582Z,12.75
2023-03-20T12:34:48.716Z,12.82
2023-03-20T12:38:13.952Z,12.91
2023-03-20T12:41:39.138Z,12.98
2023-03-20T12:45:04.439Z,12.97
2023-03-20T12:48:30.564Z,12.92
2023-03-20T12:51:56.630Z,12.91
2023-03-20T12:55:21.694Z,12.9
2023-03-20T12:58:46.941Z,12.91
2023-03-20T13:02:12.158Z,12.95
2023-03-20T13:05:37.365Z,13.02
2023-03-20T13:09:02.602Z,13.07
2023-03-20T13:12:28.054Z,13.13
2023-03-20T13:15:53.262Z,13.12
2023-03-20T13:19:18.476Z,13.11
2023-03-20T13:22:43.696Z,13.1
2023-03-20T13:26:08.938Z,13.04
2023-03-20T13:29:34.163Z,12.94
2023-03-20T13:32:59.400Z,12.9
2023-03-20T13:36:24.737Z,12.94
2023-03-20T13:39:49.891Z,12.97
2023-03-20T13:43:15.114Z,13.04
2023-03-20T13:46:40.468Z,13.05
2023-03-20T13:50:05.642Z,13.02
2023-03-20T13:53:30.871Z,12.95
2023-03-20T13:56:56.101Z,12.9
2023-03-20T14:00:21.282Z,12.88
2023-03-20T14:03:46.533Z,12.92
2023-03-20T14:07:11.694Z,12.98
2023-03-20T14:10:37.294Z,13.04
2023-03-20T14:14:02.154Z,13.13
2023-03-20T14:17:27.378Z,13.16
2023-03-20T14:20:52.645Z,13.22
2023-03-20T14:24:17.812Z,13.24
2023-03-20T14:27:44.909Z,13.23
2023-03-20T14:31:08.292Z,13.22
2023-03-20T14:34:33.516Z,13.19
2023-03-20T14:37:58.766Z,13.19
2023-03-20T14:41:23.977Z,13.19
2023-03-20T14:44:49.208Z,13.23
2023-03-20T14:48:14.417Z,13.27
2023-03-20T14:51:39.655Z,13.28
2023-03-20T14:55:04.841Z,13.32
2023-03-20T14:58:30.116Z,13.33
2023-03-20T15:01:55.399Z,13.36
2023-03-20T15:05:20.592Z,13.37
2023-03-20T15:38:57.078Z,10.84
2023-03-20T15:42:22.254Z,11.68
2023-03-20T15:45:47.457Z,11.84
2023-03-20T15:49:12.764Z,12.03
2023-03-20T15:52:37.994Z,12.17
2023-03-20T15:56:17.150Z,12.25
2023-03-20T15:59:29.230Z,12.27
2023-03-20T16:02:54.463Z,12.27
2023-03-20T16:06:19.749Z,12.33
2023-03-20T16:09:44.990Z,12.41
2023-03-20T16:13:10.273Z,12.41
2023-03-20T16:16:35.483Z,12.4
2023-03-20T16:20:00.687Z,12.37
2023-03-20T16:23:25.907Z,12.34
2023-03-20T16:26:51.117Z,12.35
2023-03-20T16:30:16.335Z,12.42
2023-03-20T16:33:41.567Z,12.44
2023-03-20T16:37:06.774Z,12.49
2023-03-20T16:40:32.006Z,12.46
2023-03-20T16:43:57.212Z,12.41
2023-03-20T16:47:22.438Z,12.41
2023-03-20T16:50:47.620Z,12.38
2023-03-20T16:54:12.847Z,12.3
2023-03-20T16:57:38.046Z,12.22
2023-03-20T17:01:03.368Z,12.14
2023-03-20T17:04:28.615Z,12.09
2023-03-20T17:07:53.715Z,12.09
2023-03-20T17:11:18.914Z,12.09
2023-03-20T17:14:44.114Z,12.07
2023-03-20T17:18:09.353Z,12.07
2023-03-20T17:21:35.228Z,12.03
2023-03-20T17:25:00.375Z,12
2023-03-20T17:28:25.557Z,12
2023-03-20T17:31:50.813Z,12.03
2023-03-20T17:35:16.133Z,12.03
2023-03-20T17:38:41.954Z,12.02
2023-03-20T17:42:07.141Z,11.99
2023-03-20T17:45:32.365Z,12
2023-03-20T17:48:57.639Z,12.02
2023-03-20T17:52:23.265Z,12.03
2023-03-20T17:55:48.385Z,12.03
2023-03-20T17:59:13.593Z,12.03
2023-03-20T18:02:38.791Z,12.05
2023-03-20T18:06:03.976Z,12.02
2023-03-20T18:09:29.207Z,11.99
2023-03-20T18:12:54.449Z,11.97
2023-03-20T18:16:19.670Z,11.92
2023-03-20T18:19:44.863Z,11.87
2023-03-20T18:23:10.376Z,11.86
2023-03-20T18:26:35.682Z,11.88
2023-03-20T18:30:00.971Z,11.88
2023-03-20T18:33:26.309Z,11.84
2023-03-20T18:36:51.554Z,11.82
2023-03-20T18:40:16.752Z,11.85
2023-03-20T18:43:42.049Z,11.9
2023-03-20T18:47:07.425Z,11.9
2023-03-20T18:50:33.968Z,11.84
2023-03-20T18:53:57.926Z,11.8
2023-03-20T18:57:23.223Z,11.75
2023-03-20T19:00:48.504Z,11.74
2023-03-20T19:04:13.864Z,11.76
2023-03-20T19:07:39.145Z,11.73
2023-03-20T19:11:04.500Z,11.72
2023-03-20T19:14:29.825Z,11.7
2023-03-20T19:17:55.130Z,11.69
2023-03-20T19:21:20.443Z,11.69
2023-03-20T19:24:45.640Z,11.67
2023-03-20T19:28:17.146Z,11.62
2023-03-20T19:31:36.233Z,11.6
2023-03-20T19:35:44.086Z,11.58
2023-03-20T19:38:26.709Z,11.57
2023-03-20T19:41:52.538Z,11.61
2023-03-20T19:45:17.222Z,11.59
2023-03-20T19:48:49.957Z,11.58
2023-03-20T19:52:07.701Z,11.55
2023-03-20T19:55:32.985Z,11.55
2023-03-20T19:58:58.257Z,11.56
2023-03-20T20:02:23.715Z,11.53
2023-03-20T20:05:48.868Z,11.51
2023-03-20T20:09:14.116Z,11.48
2023-03-20T20:12:39.372Z,11.49
2023-03-20T20:16:04.609Z,11.48
2023-03-20T20:19:29.859Z,11.51
2023-03-20T20:22:55.170Z,11.5
2023-03-20T20:26:20.889Z,11.49
2023-03-20T20:29:45.656Z,11.51
2023-03-20T20:33:10.963Z,11.53
2023-03-20T20:37:20.982Z,11.54
2023-03-20T20:40:01.397Z,11.54
2023-03-20T20:43:56.874Z,11.55
2023-03-20T20:46:52.066Z,11.54
2023-03-20T20:50:17.328Z,11.53
2023-03-20T20:53:42.576Z,11.55
2023-03-20T20:57:07.803Z,11.55
2023-03-20T21:00:47.896Z,11.46
2023-03-20T21:03:58.278Z,11.43
2023-03-20T21:07:23.496Z,11.41
2023-03-20T21:10:48.710Z,11.35
2023-03-20T21:14:13.984Z,11.37
2023-03-20T21:17:47.238Z,11.33
2023-03-20T21:21:04.407Z,11.26
2023-03-20T21:24:31.948Z,11.26
2023-03-20T21:27:54.846Z,11.22
2023-03-20T21:31:25.088Z,11.14
2023-03-20T21:34:45.263Z,11.13
2023-03-20T21:38:53.612Z,11.07
2023-03-20T21:41:35.704Z,11.02
2023-03-20T21:48:58.661Z,10.94
2023-03-20T21:52:46.076Z,10.93
2023-03-20T21:59:23.358Z,10.96
2023-03-20T22:02:16.174Z,10.93
2023-03-20T22:06:24.027Z,10.87
2023-03-20T22:09:45.377Z,10.84
2023-03-20T22:16:33.625Z,10.72
2023-03-20T22:23:21.214Z,10.58
2023-03-20T22:30:05.062Z,10.48
2023-03-20T22:37:08.987Z,10.45
2023-03-20T22:44:13.578Z,10.42
2023-03-20T22:46:50.448Z,10.42
2023-03-20T22:50:00.179Z,10.4
2023-03-20T22:53:25.387Z,10.4
2023-03-20T22:56:50.609Z,10.42
2023-03-20T23:00:15.814Z,10.42
2023-03-20T23:03:42.360Z,10.43
2023-03-20T23:07:06.382Z,10.47
2023-03-20T23:10:31.678Z,10.49
2023-03-20T23:13:57.173Z,10.48
2023-03-20T23:17:22.247Z,10.47
2023-03-20T23:20:47.555Z,10.44
2023-03-20T23:24:12.820Z,10.36
2023-03-20T23:27:38.139Z,10.25
2023-03-20T23:31:09.993Z,10.18
2023-03-20T23:34:28.730Z,10.09
2023-03-20T23:37:54.041Z,10.01
2023-03-20T23:41:19.316Z,9.99
2023-03-20T23:44:55.253Z,9.97
2023-03-20T23:48:09.920Z,9.99
2023-03-20T23:51:35.171Z,10
2023-03-20T23:55:00.474Z,10
2023-03-20T23:58:25.743Z,10.01
